createdAt,value
2023-01-26T00:02:16.759Z,2.32
2023-01-26T00:04:49.967Z,2.34
2023-01-26T00:07:21.683Z,2.35
2023-01-26T00:09:53.399Z,2.37
2023-01-26T00:12:25.533Z,2.36
2023-01-26T00:14:57.200Z,2.35
2023-01-26T00:17:31.609Z,2.27
2023-01-26T00:20:06.541Z,2.26
2023-01-26T00:22:38.264Z,2.31
2023-01-26T00:25:10.775Z,2.31
2023-01-26T00:27:43.793Z,2.32
2023-01-26T00:30:18.291Z,2.27
2023-01-26T00:32:50.394Z,2.30
2023-01-26T00:35:22.008Z,2.34
2023-01-26T00:37:54.932Z,2.35
2023-01-26T00:40:26.689Z,2.32
2023-01-26T00:42:59.786Z,2.33
2023-01-26T00:45:31.789Z,2.26
2023-01-26T00:48:03.489Z,2.17
2023-01-26T00:50:37.117Z,2.18
2023-01-26T00:53:10.461Z,2.20
2023-01-26T00:55:42.239Z,2.24
2023-01-26T00:58:16.928Z,2.31
2023-01-26T01:00:48.582Z,2.28
2023-01-26T01:03:20.293Z,2.28
2023-01-26T01:05:52.803Z,2.25
2023-01-26T01:08:27.521Z,2.30
2023-01-26T01:11:10.971Z,2.34
2023-01-26T01:13:42.998Z,2.40
2023-01-26T01:16:16.639Z,2.44
2023-01-26T01:18:56.137Z,2.46
2023-01-26T01:21:27.880Z,2.46
2023-01-26T01:24:00.497Z,2.45
2023-01-26T01:26:33.044Z,2.43
2023-01-26T01:29:05.478Z,2.45
2023-01-26T01:31:37.346Z,2.49
2023-01-26T01:34:12.274Z,2.50
2023-01-26T01:36:45.141Z,2.51
2023-01-26T01:39:19.558Z,2.48
2023-01-26T01:41:51.216Z,2.49
2023-01-26T01:44:24.942Z,2.48
2023-01-26T01:47:04.126Z,2.47
2023-01-26T01:49:45.653Z,2.45
2023-01-26T01:52:21.219Z,2.44
2023-01-26T01:54:59.708Z,2.45
2023-01-26T01:57:46.580Z,2.40
2023-01-26T02:00:21.213Z,2.42
2023-01-26T02:03:19.029Z,2.41
2023-01-26T02:06:14.746Z,2.35
2023-01-26T02:08:49.558Z,2.36
2023-01-26T02:11:30.718Z,2.34
2023-01-26T02:14:27.485Z,2.35
2023-01-26T02:16:59.426Z,2.37
2023-01-26T02:20:03.187Z,2.33
2023-01-26T02:22:51.629Z,2.31
2023-01-26T02:25:36.999Z,2.29
2023-01-26T02:28:08.942Z,2.32
2023-01-26T02:30:43.493Z,2.28
2023-01-26T02:33:29.710Z,2.27
2023-01-26T02:36:06.388Z,2.27
2023-01-26T02:38:53.302Z,2.24
2023-01-26T02:41:46.927Z,2.16
2023-01-26T02:44:19.867Z,2.13
2023-01-26T02:46:53.099Z,2.08
2023-01-26T02:49:44.322Z,2.06
2023-01-26T02:52:19.126Z,2.08
2023-01-26T02:55:13.989Z,2.10
2023-01-26T02:57:46.473Z,2.17
2023-01-26T03:00:24.613Z,2.19
2023-01-26T03:03:00.665Z,2.17
2023-01-26T03:05:32.395Z,2.13
2023-01-26T03:08:06.124Z,2.10
2023-01-26T03:10:41.213Z,2.05
2023-01-26T03:13:12.955Z,1.99
2023-01-26T03:15:47.982Z,1.96
2023-01-26T03:18:40.451Z,1.95
2023-01-26T03:21:33.282Z,1.93
2023-01-26T03:24:23.646Z,1.92
2023-01-26T03:27:20.713Z,1.98
2023-01-26T03:29:53.137Z,1.99
2023-01-26T03:32:25.490Z,2.00
2023-01-26T03:34:57.564Z,2.03
2023-01-26T03:37:36.879Z,2.04
2023-01-26T03:40:37.398Z,1.98
2023-01-26T03:43:28.466Z,2.00
2023-01-26T03:46:22.105Z,2.01
2023-01-26T03:49:13.068Z,2.03
2023-01-26T03:52:03.401Z,2.01
2023-01-26T03:54:53.604Z,2.03
2023-01-26T03:57:25.295Z,2.06
2023-01-26T03:59:56.961Z,2.00
2023-01-26T04:02:50.722Z,1.98
2023-01-26T04:05:42.135Z,1.95
2023-01-26T04:08:23.749Z,1.95
2023-01-26T04:11:00.861Z,1.86
2023-01-26T04:13:52.369Z,1.86
2023-01-26T04:16:48.327Z,1.84
2023-01-26T04:19:39.196Z,1.85
2023-01-26T04:22:14.589Z,1.83
2023-01-26T04:24:47.524Z,1.83
2023-01-26T04:27:21.323Z,1.87
2023-01-26T04:29:53.091Z,1.84
2023-01-26T04:32:24.918Z,1.83
2023-01-26T04:34:56.987Z,1.80
2023-01-26T04:37:35.869Z,1.83
2023-01-26T04:40:09.959Z,1.85
2023-01-26T04:42:42.812Z,1.86
2023-01-26T04:45:15.758Z,1.83
2023-01-26T04:47:50.884Z,1.82
2023-01-26T04:50:23.181Z,1.77
2023-01-26T04:52:55.833Z,1.76
2023-01-26T04:55:27.474Z,1.81
2023-01-26T04:57:59.245Z,1.86
2023-01-26T05:00:31.566Z,1.91
2023-01-26T05:03:04.662Z,1.94
2023-01-26T05:05:37.800Z,1.93
2023-01-26T05:08:13.488Z,1.95
2023-01-26T05:10:45.906Z,1.91
2023-01-26T05:13:27.719Z,1.83
2023-01-26T05:16:28.541Z,1.86
2023-01-26T05:19:26.143Z,1.83
2023-01-26T05:22:16.107Z,1.83
2023-01-26T05:25:08.381Z,1.80
2023-01-26T05:27:52.812Z,1.77
2023-01-26T05:30:24.564Z,1.73
2023-01-26T05:33:10.217Z,1.71
2023-01-26T05:35:43.777Z,1.69
2023-01-26T05:38:16.189Z,1.69
2023-01-26T05:40:49.493Z,1.69
2023-01-26T05:43:27.514Z,1.68
2023-01-26T05:46:34.315Z,1.70
2023-01-26T05:49:07.375Z,1.73
2023-01-26T05:51:39.821Z,1.70
2023-01-26T05:54:12.405Z,1.67
2023-01-26T05:56:44.871Z,1.68
2023-01-26T05:59:18.260Z,1.74
2023-01-26T06:01:51.342Z,1.75
2023-01-26T06:04:23.526Z,1.77
2023-01-26T06:07:00.619Z,1.76
2023-01-26T06:09:42.156Z,1.76
2023-01-26T06:12:38.647Z,1.68
2023-01-26T06:15:33.748Z,1.60
2023-01-26T06:18:05.647Z,1.60
2023-01-26T06:20:41.473Z,1.62
2023-01-26T06:23:16.447Z,1.59
2023-01-26T06:25:51.819Z,1.65
2023-01-26T06:28:26.837Z,1.68
2023-01-26T06:31:06.482Z,1.66
2023-01-26T06:33:39.037Z,1.67
2023-01-26T06:36:15.796Z,1.68
2023-01-26T06:38:54.949Z,1.62
2023-01-26T06:41:28.055Z,1.65
2023-01-26T06:44:01.055Z,1.68
2023-01-26T06:46:32.778Z,1.66
2023-01-26T06:49:09.794Z,1.64
2023-01-26T06:51:50.549Z,1.67
2023-01-26T06:54:23.358Z,1.65
2023-01-26T06:57:24.557Z,1.63
2023-01-26T07:00:17.580Z,1.65
2023-01-26T07:03:01.494Z,1.70
2023-01-26T07:05:33.229Z,1.75
2023-01-26T07:08:07.581Z,1.76
2023-01-26T07:10:39.357Z,1.80
2023-01-26T07:13:11.111Z,1.83
2023-01-26T07:15:42.811Z,1.79
2023-01-26T07:18:14.540Z,1.77
2023-01-26T07:20:46.202Z,1.82
2023-01-26T07:23:17.840Z,1.86
2023-01-26T07:25:49.558Z,1.90
2023-01-26T07:28:21.241Z,1.87
2023-01-26T07:30:57.267Z,1.85
2023-01-26T07:33:29.728Z,1.83
2023-01-26T07:36:02.225Z,1.88
2023-01-26T07:38:34.565Z,1.91
2023-01-26T07:41:09.341Z,1.93
2023-01-26T07:43:42.557Z,1.92
2023-01-26T07:46:14.572Z,1.94
2023-01-26T07:48:47.339Z,1.89
2023-01-26T07:51:21.819Z,1.91
2023-01-26T07:53:53.706Z,1.98
2023-01-26T07:56:25.673Z,1.99
2023-01-26T07:58:57.826Z,1.98
2023-01-26T08:01:30.453Z,2.02
2023-01-26T08:04:02.099Z,2.07
2023-01-26T08:06:33.737Z,1.98
2023-01-26T08:09:05.515Z,1.97
2023-01-26T08:11:37.428Z,2.01
2023-01-26T08:14:11.894Z,2.04
2023-01-26T08:16:45.487Z,2.05
2023-01-26T08:19:17.286Z,2.07
2023-01-26T08:21:48.881Z,2.11
2023-01-26T08:24:20.592Z,2.11
2023-01-26T08:26:52.343Z,2.10
2023-01-26T08:29:24.065Z,2.08
2023-01-26T08:31:58.968Z,2.15
2023-01-26T08:34:30.621Z,2.09
2023-01-26T08:37:03.875Z,2.07
2023-01-26T08:39:35.619Z,2.05
2023-01-26T08:42:07.330Z,2.07
2023-01-26T08:44:39.276Z,2.10
2023-01-26T08:47:13.904Z,2.14
2023-01-26T08:49:45.644Z,2.19
2023-01-26T08:52:17.527Z,2.13
2023-01-26T08:54:51.299Z,2.08
2023-01-26T08:57:23.114Z,2.09
2023-01-26T08:59:57.714Z,2.09
2023-01-26T09:02:29.591Z,2.12
2023-01-26T09:05:01.325Z,2.14
2023-01-26T09:07:32.995Z,2.15
2023-01-26T09:10:09.967Z,2.18
2023-01-26T09:12:41.944Z,2.18
2023-01-26T09:15:13.700Z,2.17
2023-01-26T09:17:49.236Z,2.21
2023-01-26T09:20:23.586Z,2.21
2023-01-26T09:22:55.272Z,2.25
2023-01-26T09:25:26.936Z,2.24
2023-01-26T09:27:58.669Z,2.24
2023-01-26T09:30:30.727Z,2.24
2023-01-26T09:33:06.025Z,2.24
2023-01-26T09:35:40.492Z,2.25
2023-01-26T09:38:12.199Z,2.32
2023-01-26T09:41:08.131Z,2.35
2023-01-26T09:43:58.558Z,2.26
2023-01-26T09:46:57.122Z,2.30
2023-01-26T09:50:01.458Z,2.25
2023-01-26T09:52:39.408Z,2.24
2023-01-26T09:55:20.221Z,2.26
2023-01-26T09:58:01.169Z,2.30
2023-01-26T10:00:39.338Z,2.34
2023-01-26T10:03:14.474Z,2.30
2023-01-26T10:05:54.388Z,2.18
2023-01-26T10:09:25.231Z,2.25
2023-01-26T10:12:01.679Z,2.28
2023-01-26T10:14:45.030Z,2.28
2023-01-26T10:17:23.930Z,2.26
2023-01-26T10:20:02.870Z,2.22
2023-01-26T10:22:52.561Z,2.26
2023-01-26T10:25:37.424Z,2.27
2023-01-26T10:28:26.122Z,2.31
2023-01-26T10:30:59.293Z,2.30
2023-01-26T10:33:36.999Z,2.35
2023-01-26T10:36:12.549Z,2.34
2023-01-26T10:38:45.828Z,2.34
2023-01-26T10:41:28.975Z,2.20
2023-01-26T10:44:09.738Z,2.18
2023-01-26T10:46:42.746Z,2.16
2023-01-26T10:49:17.690Z,2.22
2023-01-26T10:52:07.140Z,2.20
2023-01-26T10:54:39.685Z,2.24
2023-01-26T10:57:32.572Z,2.25
2023-01-26T11:00:29.105Z,2.18
2023-01-26T11:03:18.697Z,2.18
2023-01-26T11:06:07.101Z,2.11
2023-01-26T11:08:39.837Z,2.13
2023-01-26T11:11:27.023Z,2.21
2023-01-26T11:14:19.301Z,2.15
2023-01-26T11:16:59.272Z,2.08
2023-01-26T11:19:43.117Z,2.07
2023-01-26T11:22:45.314Z,2.14
2023-01-26T11:25:40.316Z,2.25
2023-01-26T11:28:20.884Z,2.24
2023-01-26T11:30:59.509Z,2.28
2023-01-26T11:33:50.457Z,2.37
2023-01-26T11:36:37.508Z,2.45
2023-01-26T11:39:21.637Z,2.51
2023-01-26T11:42:25.735Z,2.46
2023-01-26T11:45:19.659Z,2.44
2023-01-26T11:48:13.816Z,2.26
2023-01-26T11:50:54.345Z,2.13
2023-01-26T11:53:41.273Z,2.06
2023-01-26T11:56:37.505Z,2.04
2023-01-26T11:59:21.974Z,2.04
2023-01-26T12:02:05.651Z,2.01
2023-01-26T12:04:45.446Z,2.05
2023-01-26T12:07:30.244Z,2.01
2023-01-26T12:10:04.952Z,2.01
2023-01-26T12:12:40.355Z,2.04
2023-01-26T12:15:29.063Z,2.05
2023-01-26T12:18:09.965Z,2.09
2023-01-26T12:21:11.888Z,2.12
2023-01-26T12:24:02.528Z,2.26
2023-01-26T12:26:40.304Z,2.39
2023-01-26T12:29:41.691Z,2.65
2023-01-26T12:32:16.937Z,2.51
2023-01-26T12:34:49.012Z,2.34
2023-01-26T12:37:26.557Z,2.36
2023-01-26T12:40:24.061Z,2.39
2023-01-26T12:43:06.223Z,2.41
2023-01-26T12:45:45.766Z,2.40
2023-01-26T12:48:25.749Z,2.33
2023-01-26T12:51:04.763Z,2.32
2023-01-26T12:53:48.368Z,2.32
2023-01-26T12:56:30.390Z,2.35
2023-01-26T12:59:23.220Z,2.34
2023-01-26T13:02:28.001Z,2.26
2023-01-26T13:05:01.716Z,2.24
2023-01-26T13:07:35.042Z,2.17
2023-01-26T13:10:17.642Z,2.08
2023-01-26T13:13:01.435Z,2.08
2023-01-26T13:15:33.299Z,2.05
2023-01-26T13:18:05.044Z,2.00
2023-01-26T13:21:08.586Z,2.01
2023-01-26T13:23:43.285Z,1.88
2023-01-26T13:26:21.559Z,1.85
2023-01-26T13:29:25.380Z,1.84
2023-01-26T13:32:17.303Z,1.84
2023-01-26T13:34:59.761Z,1.90
2023-01-26T13:37:34.833Z,1.89
2023-01-26T13:40:31.312Z,1.87
2023-01-26T13:43:40.295Z,1.84
2023-01-26T13:46:22.064Z,1.83
2023-01-26T13:48:56.080Z,1.88
2023-01-26T13:51:35.912Z,1.87
2023-01-26T13:54:16.195Z,1.89
2023-01-26T13:57:24.247Z,1.99
2023-01-26T14:00:02.483Z,1.93
2023-01-26T14:02:38.847Z,1.95
2023-01-26T14:05:22.555Z,2.01
2023-01-26T14:07:54.383Z,2.04
2023-01-26T14:10:27.936Z,2.12
2023-01-26T14:13:04.211Z,2.11
2023-01-26T14:15:35.890Z,2.08
2023-01-26T14:18:22.141Z,2.10
2023-01-26T14:21:05.642Z,2.10
2023-01-26T14:23:37.386Z,2.15
2023-01-26T14:26:21.871Z,2.14
2023-01-26T14:28:53.577Z,2.18
2023-01-26T14:31:27.384Z,2.04
2023-01-26T14:34:02.445Z,1.93
2023-01-26T14:36:39.187Z,1.86
2023-01-26T14:39:18.385Z,1.85
2023-01-26T14:41:52.282Z,1.86
2023-01-26T14:44:23.967Z,1.85
2023-01-26T14:47:06.250Z,1.78
2023-01-26T14:50:02.656Z,1.74
2023-01-26T14:52:40.581Z,1.72
2023-01-26T14:55:28.164Z,1.69
2023-01-26T14:58:03.777Z,1.75
2023-01-26T15:00:37.002Z,1.81
2023-01-26T15:03:30.444Z,1.88
2023-01-26T15:06:05.205Z,1.94
2023-01-26T15:08:40.872Z,1.93
2023-01-26T15:11:31.905Z,2.02
2023-01-26T15:14:03.801Z,2.05
2023-01-26T15:16:53.648Z,2.01
2023-01-26T15:19:32.010Z,2.00
2023-01-26T15:22:20.556Z,2.04
2023-01-26T15:25:05.432Z,2.02
2023-01-26T15:27:37.357Z,2.01
2023-01-26T15:30:17.501Z,1.92
2023-01-26T15:32:49.686Z,1.90
2023-01-26T15:35:28.453Z,1.97
2023-01-26T15:38:11.836Z,2.07
2023-01-26T15:40:43.572Z,2.09
2023-01-26T15:43:16.192Z,2.13
2023-01-26T15:45:58.804Z,2.22
2023-01-26T15:48:34.281Z,2.24
2023-01-26T15:51:13.771Z,2.26
2023-01-26T15:53:45.501Z,2.30
2023-01-26T15:56:17.240Z,2.30
2023-01-26T15:58:48.968Z,2.30
2023-01-26T16:01:23.606Z,2.32
2023-01-26T16:03:55.289Z,2.40
2023-01-26T16:06:31.547Z,2.44
2023-01-26T16:09:03.598Z,2.44
2023-01-26T16:11:41.391Z,2.43
2023-01-26T16:14:13.581Z,2.50
2023-01-26T16:16:45.497Z,2.44
2023-01-26T16:19:34.374Z,2.39
2023-01-26T16:22:11.748Z,2.42
2023-01-26T16:24:43.825Z,2.38
2023-01-26T16:27:15.524Z,2.33
2023-01-26T16:29:47.201Z,2.34
2023-01-26T16:32:29.445Z,2.38
2023-01-26T16:35:01.083Z,2.41
2023-01-26T16:37:32.860Z,2.42
2023-01-26T16:40:05.617Z,2.41
2023-01-26T16:42:40.657Z,2.42
2023-01-26T16:45:20.481Z,2.47
2023-01-26T16:47:55.647Z,2.52
2023-01-26T16:50:27.340Z,2.56
2023-01-26T16:52:59.521Z,2.51
2023-01-26T16:55:31.130Z,2.35
2023-01-26T16:58:02.824Z,2.30
2023-01-26T17:00:34.945Z,2.32
2023-01-26T17:03:09.330Z,2.47
2023-01-26T17:05:41.440Z,2.40
2023-01-26T17:08:13.266Z,2.40
2023-01-26T17:11:00.601Z,2.40
2023-01-26T17:13:33.126Z,2.45
2023-01-26T17:16:05.194Z,2.56
2023-01-26T17:18:38.938Z,2.53
2023-01-26T17:21:14.402Z,2.52
2023-01-26T17:23:51.137Z,2.50
2023-01-26T17:26:23.501Z,2.49
2023-01-26T17:28:56.577Z,2.47
2023-01-26T17:31:31.706Z,2.52
2023-01-26T17:34:03.405Z,2.34
2023-01-26T17:36:35.902Z,2.36
2023-01-26T17:39:09.854Z,2.28
2023-01-26T17:41:41.484Z,2.21
2023-01-26T17:44:14.460Z,2.35
2023-01-26T17:46:48.881Z,2.42
2023-01-26T17:49:21.606Z,2.28
2023-01-26T17:51:53.370Z,2.08
2023-01-26T17:54:31.268Z,2.03
2023-01-26T17:57:03.002Z,2.02
2023-01-26T17:59:34.771Z,2.06
2023-01-26T18:02:07.021Z,2.08
2023-01-26T18:04:40.357Z,2.00
2023-01-26T18:07:15.106Z,2.02
2023-01-26T18:09:47.651Z,2.01
2023-01-26T18:12:19.365Z,2.01
2023-01-26T18:14:55.208Z,2.02
2023-01-26T18:17:26.989Z,1.97
2023-01-26T18:19:58.701Z,2.02
2023-01-26T18:22:30.819Z,1.91
2023-01-26T18:25:02.539Z,1.92
2023-01-26T18:27:34.242Z,2.01
2023-01-26T18:30:06.620Z,2.09
2023-01-26T18:32:39.088Z,2.00
2023-01-26T18:35:11.235Z,2.01
2023-01-26T18:37:43.080Z,2.01
2023-01-26T18:40:15.340Z,1.98
2023-01-26T18:42:54.195Z,1.98
2023-01-26T18:45:25.956Z,1.86
2023-01-26T18:47:58.766Z,1.79
2023-01-26T18:50:30.429Z,1.81
2023-01-26T18:53:03.507Z,1.84
2023-01-26T18:55:37.593Z,1.80
2023-01-26T18:58:12.146Z,1.77
2023-01-26T19:00:43.873Z,1.67
2023-01-26T19:03:18.147Z,1.61
2023-01-26T19:05:50.735Z,1.58
2023-01-26T19:08:25.439Z,1.62
2023-01-26T19:10:57.677Z,1.61
2023-01-26T19:13:29.383Z,1.53
2023-01-26T19:16:01.232Z,1.56
2023-01-26T19:18:32.890Z,1.61
2023-01-26T19:21:05.656Z,1.58
2023-01-26T19:23:42.627Z,1.57
2023-01-26T19:26:19.986Z,1.53
2023-01-26T19:28:52.275Z,1.47
2023-01-26T19:31:27.606Z,1.47
2023-01-26T19:34:01.571Z,1.54
2023-01-26T19:36:40.133Z,1.50
2023-01-26T19:39:13.671Z,1.41
2023-01-26T19:41:46.343Z,1.41
2023-01-26T19:44:18.195Z,1.41
2023-01-26T19:46:51.445Z,1.46
2023-01-26T19:49:25.903Z,1.52
2023-01-26T19:51:57.642Z,1.59
2023-01-26T19:54:29.310Z,1.62
2023-01-26T19:57:01.002Z,1.60
2023-01-26T19:59:32.673Z,1.51
2023-01-26T20:02:04.434Z,1.53
2023-01-26T20:04:36.145Z,1.45
2023-01-26T20:07:08.992Z,1.35
2023-01-26T20:09:40.695Z,1.34
2023-01-26T20:12:12.433Z,1.31
2023-01-26T20:14:44.223Z,1.31
2023-01-26T20:17:18.300Z,1.31
2023-01-26T20:19:50.294Z,1.34
2023-01-26T20:22:24.107Z,1.36
2023-01-26T20:24:55.809Z,1.37
2023-01-26T20:27:29.404Z,1.40
2023-01-26T20:30:01.221Z,1.45
2023-01-26T20:32:34.359Z,1.53
2023-01-26T20:35:08.699Z,1.51
2023-01-26T20:37:40.507Z,1.50
2023-01-26T20:40:13.022Z,1.58
2023-01-26T20:42:46.205Z,1.62
2023-01-26T20:45:18.415Z,1.61
2023-01-26T20:47:50.175Z,1.70
2023-01-26T20:50:22.194Z,1.59
2023-01-26T20:52:53.870Z,1.42
2023-01-26T20:55:25.506Z,1.31
2023-01-26T20:57:57.158Z,1.24
2023-01-26T21:00:31.091Z,1.27
2023-01-26T21:03:06.631Z,1.22
2023-01-26T21:05:38.328Z,1.15
2023-01-26T21:08:10.829Z,1.17
2023-01-26T21:10:48.973Z,1.16
2023-01-26T21:13:21.347Z,1.15
2023-01-26T21:15:53.186Z,1.12
2023-01-26T21:18:24.917Z,1.15
2023-01-26T21:21:03.481Z,1.20
2023-01-26T21:23:35.460Z,1.18
2023-01-26T21:26:13.021Z,1.15
2023-01-26T21:28:45.371Z,1.18
2023-01-26T21:31:17.118Z,1.23
2023-01-26T21:33:51.541Z,1.21
2023-01-26T21:36:26.143Z,1.24
2023-01-26T21:39:00.154Z,1.18
2023-01-26T21:41:52.081Z,1.14
2023-01-26T21:44:53.684Z,1.13
2023-01-26T21:47:25.367Z,1.11
2023-01-26T21:49:59.354Z,1.09
2023-01-26T21:52:49.524Z,0.95
2023-01-26T21:55:21.174Z,1.00
2023-01-26T21:58:12.139Z,0.98
2023-01-26T22:00:43.831Z,0.98
2023-01-26T22:03:15.520Z,0.84
2023-01-26T22:05:56.869Z,0.84
2023-01-26T22:08:28.693Z,0.89
2023-01-26T22:11:01.724Z,0.95
2023-01-26T22:13:35.860Z,1.01
2023-01-26T22:16:08.884Z,1.02
2023-01-26T22:18:40.679Z,0.94
2023-01-26T22:21:15.523Z,0.87
2023-01-26T22:23:47.370Z,0.90
2023-01-26T22:26:24.134Z,0.97
2023-01-26T22:28:57.625Z,0.99
2023-01-26T22:31:30.519Z,0.93
2023-01-26T22:34:02.541Z,0.94
2023-01-26T22:36:34.326Z,0.96
2023-01-26T22:39:06.179Z,0.88
2023-01-26T22:41:38.078Z,0.85
2023-01-26T22:44:12.631Z,0.84
2023-01-26T22:46:44.329Z,0.90
2023-01-26T22:49:16.108Z,0.95
2023-01-26T22:51:47.818Z,1.02
2023-01-26T22:54:19.464Z,1.10
2023-01-26T22:56:51.153Z,1.09
2023-01-26T22:59:22.913Z,1.10
2023-01-26T23:01:57.530Z,0.99
2023-01-26T23:04:29.258Z,0.90
2023-01-26T23:07:01.829Z,0.94
2023-01-26T23:09:33.542Z,0.94
2023-01-26T23:12:07.286Z,1.01
2023-01-26T23:14:39.003Z,0.96
2023-01-26T23:17:11.459Z,0.94
2023-01-26T23:19:45.792Z,0.92
2023-01-26T23:22:17.518Z,0.94
2023-01-26T23:25:09.201Z,0.90
2023-01-26T23:27:40.846Z,0.93
2023-01-26T23:30:13.097Z,0.90
2023-01-26T23:32:44.985Z,0.89
2023-01-26T23:35:17.838Z,0.91
2023-01-26T23:37:51.511Z,0.92
2023-01-26T23:40:24.282Z,0.97
2023-01-26T23:43:10.565Z,1.04
2023-01-26T23:46:43.861Z,1.04
2023-01-26T23:49:15.647Z,1.00
2023-01-26T23:51:47.252Z,0.96
2023-01-26T23:54:18.928Z,0.96
2023-01-26T23:56:50.669Z,0.89
2023-01-26T23:59:22.357Z,0.82
